Search for airport 
image banner adimage banner adimage banner ad
image banner ad

KLPC - Lompoc

Located in Lompoc, United States

ICAO - LPC, IATA - LPC

Data provided by Airmate  

General information

Coordinates: N34°39'56" W120°28'3"
Elevation is 88 feet MSL.
Magnetic variation is 15° East
View others Airports in California

Operational data

Special qualification required
Current time UTC:
Current local time:
Weather
METAR: KLPC 151011Z AUTO 27005KT 9SM OVC003 12/11 A2998 RMK AO2
View NOTAMs / SUP AIP / TFR affecting this airport [VIEW]
Communications frequencies: [VIEW]

Runways:

RWY identifierQFULength (ft)Width (ft)SurfaceLDA (ft)
0791°4600100ASPH
25271°4600100ASPH

Airport contact information

Address: Lompoc United States

Other aviation service providers

Flight schools

Barnstormers Aero Services, Inc

Barnstormers Aero Services, Inc
minjares@me.com+1(303)885-0346

Satellite view of KLPC